KEKN/EKN METAR and TAF weather

Enter ICAO airport designator
Station Type Date Time Source
KEKN METAR 2019/08/19 11:51 UTC NOAA

KEKN 191151Z AUTO 00000KT 10SM CLR 20/17 A3012 RMK AO2 SLP187 T02000172 10200 20178 51014


Station Type Date Time Source
KEKN Decoded METAR 2019/08/19 11:51 UTC NOAA

Station name not available
Aug 19, 2019 - 07:51 AM EDT / 2019.08.19 1151 UTC
Wind: Calm:0
Visibility: 10 mile(s):0
Sky conditions: clear
Temperature: 68.0 F (20.0 C)
Dew Point: 63.0 F (17.2 C)
Relative Humidity: 83%
Pressure (altimeter): 30.12 in. Hg (1019 hPa)
Pressure tendency: 0.04 inches (1.4 hPa) higher than three hours ago
ob: KEKN 191151Z AUTO 00000KT 10SM CLR 20/17 A3012 RMK AO2 SLP187 T02000172 10200 20178 51014
cycle: 12

Station Type Date Time Source
KEKN TAF 2019/08/19 12:22 UTC NOAA

TAF KEKN 191120Z 1912/2012 00000KT P6SM BCFG SCT250
FM192000 28005KT P6SM VCTS SCT250CB
FM200000 00000KT P6SM SCT200
FM200300 00000KT 5SM BR FEW250

Example: see airport list